sensor_id;sensor_type;location;lat;lon;timestamp;temperature;humidity
4874;DHT22;2451;49.970;9.068;2024-03-02T00:00:23;4.40;99.90
4874;DHT22;2451;49.970;9.068;2024-03-02T00:02:51;4.50;99.90
4874;DHT22;2451;49.970;9.068;2024-03-02T00:05:21;4.50;99.90
4874;DHT22;2451;49.970;9.068;2024-03-02T00:07:54;4.50;99.90
4874;DHT22;2451;49.970;9.068;2024-03-02T00:10:26;4.50;99.90
4874;DHT22;2451;49.970;9.068;2024-03-02T00:12:55;4.60;99.90
4874;DHT22;2451;49.970;9.068;2024-03-02T00:18:11;4.50;99.90
4874;DHT22;2451;49.970;9.068;2024-03-02T00:20:38;4.50;99.90
4874;DHT22;2451;49.970;9.068;2024-03-02T00:23:05;4.50;99.90
4874;DHT22;2451;49.970;9.068;2024-03-02T00:25:51;4.50;99.90
4874;DHT22;2451;49.970;9.068;2024-03-02T00:28:25;4.50;99.90
4874;DHT22;2451;49.970;9.068;2024-03-02T00:30:55;4.50;99.90
4874;DHT22;2451;49.970;9.068;2024-03-02T00:33:22;4.40;99.90
4874;DHT22;2451;49.970;9.068;2024-03-02T00:35:49;4.30;99.90
4874;DHT22;2451;49.970;9.068;2024-03-02T00:38:15;4.30;99.90
4874;DHT22;2451;49.970;9.068;2024-03-02T00:40:41;4.20;99.90
4874;DHT22;2451;49.970;9.068;2024-03-02T00:45:49;4.10;99.90
4874;DHT22;2451;49.970;9.068;2024-03-02T00:48:16;4.10;99.90
4874;DHT22;2451;49.970;9.068;2024-03-02T00:50:42;4.20;99.90
4874;DHT22;2451;49.970;9.068;2024-03-02T00:53:11;4.20;99.90
4874;DHT22;2451;49.970;9.068;2024-03-02T00:55:37;4.30;99.90
4874;DHT22;2451;49.970;9.068;2024-03-02T00:58:03;4.30;99.90
4874;DHT22;2451;49.970;9.068;2024-03-02T01:00:29;4.40;99.90
4874;DHT22;2451;49.970;9.068;2024-03-02T01:02:54;4.40;99.90
4874;DHT22;2451;49.970;9.068;2024-03-02T01:05:20;4.50;99.90
4874;DHT22;2451;49.970;9.068;2024-03-02T01:07:46;4.50;99.90
4874;DHT22;2451;49.970;9.068;2024-03-02T01:10:12;4.50;99.90
4874;DHT22;2451;49.970;9.068;2024-03-02T01:12:37;4.50;99.90
4874;DHT22;2451;49.970;9.068;2024-03-02T01:15:03;4.50;99.90
4874;DHT22;2451;49.970;9.068;2024-03-02T01:17:31;4.50;99.90
4874;DHT22;2451;49.970;9.068;2024-03-02T01:19:56;4.40;99.90
4874;DHT22;2451;49.970;9.068;2024-03-02T01:22:23;4.40;99.90
4874;DHT22;2451;49.970;9.068;2024-03-02T01:24:51;4.50;99.90
4874;DHT22;2451;49.970;9.068;2024-03-02T01:27:16;4.50;99.90
4874;DHT22;2451;49.970;9.068;2024-03-02T01:29:42;4.50;99.90
4874;DHT22;2451;49.970;9.068;2024-03-02T01:32:07;4.50;99.90
4874;DHT22;2451;49.970;9.068;2024-03-02T01:34:33;4.50;99.90
4874;DHT22;2451;49.970;9.068;2024-03-02T01:36:58;4.50;99.90
4874;DHT22;2451;49.970;9.068;2024-03-02T01:39:24;4.40;99.90
4874;DHT22;2451;49.970;9.068;2024-03-02T01:41:49;4.40;99.90
4874;DHT22;2451;49.970;9.068;2024-03-02T01:44:15;4.30;99.90
4874;DHT22;2451;49.970;9.068;2024-03-02T01:46:41;4.30;99.90
4874;DHT22;2451;49.970;9.068;2024-03-02T01:49:06;4.30;99.90
4874;DHT22;2451;49.970;9.068;2024-03-02T01:51:32;4.30;99.90
4874;DHT22;2451;49.970;9.068;2024-03-02T01:53:57;4.20;99.90
4874;DHT22;2451;49.970;9.068;2024-03-02T01:56:23;4.30;99.90
4874;DHT22;2451;49.970;9.068;2024-03-02T01:58:49;4.30;99.90
4874;DHT22;2451;49.970;9.068;2024-03-02T02:01:15;4.20;99.90
4874;DHT22;2451;49.970;9.068;2024-03-02T02:03:43;4.20;99.90
4874;DHT22;2451;49.970;9.068;2024-03-02T02:06:09;4.20;99.90
4874;DHT22;2451;49.970;9.068;2024-03-02T02:08:36;4.20;99.90
4874;DHT22;2451;49.970;9.068;2024-03-02T02:11:02;4.10;99.90
4874;DHT22;2451;49.970;9.068;2024-03-02T02:13:28;4.10;99.90
4874;DHT22;2451;49.970;9.068;2024-03-02T02:15:54;4.10;99.90
4874;DHT22;2451;49.970;9.068;2024-03-02T02:18:19;4.10;99.90
4874;DHT22;2451;49.970;9.068;2024-03-02T02:20:45;4.00;99.90
4874;DHT22;2451;49.970;9.068;2024-03-02T02:23:10;4.00;99.90
4874;DHT22;2451;49.970;9.068;2024-03-02T02:25:38;3.90;99.90
4874;DHT22;2451;49.970;9.068;2024-03-02T02:28:03;3.90;99.90
4874;DHT22;2451;49.970;9.068;2024-03-02T02:30:31;3.90;99.90
4874;DHT22;2451;49.970;9.068;2024-03-02T02:32:57;3.90;99.90
4874;DHT22;2451;49.970;9.068;2024-03-02T02:35:23;3.80;99.90
4874;DHT22;2451;49.970;9.068;2024-03-02T02:37:53;3.80;99.90
4874;DHT22;2451;49.970;9.068;2024-03-02T02:40:19;3.80;99.90
4874;DHT22;2451;49.970;9.068;2024-03-02T02:42:44;3.80;99.90
4874;DHT22;2451;49.970;9.068;2024-03-02T02:45:10;3.70;99.90
4874;DHT22;2451;49.970;9.068;2024-03-02T02:47:38;3.70;99.90
4874;DHT22;2451;49.970;9.068;2024-03-02T02:50:04;3.60;99.90
4874;DHT22;2451;49.970;9.068;2024-03-02T02:52:33;3.60;99.90
4874;DHT22;2451;49.970;9.068;2024-03-02T02:54:59;3.60;99.90
4874;DHT22;2451;49.970;9.068;2024-03-02T02:57:25;3.60;99.90
4874;DHT22;2451;49.970;9.068;2024-03-02T02:59:50;3.60;99.90
4874;DHT22;2451;49.970;9.068;2024-03-02T03:02:16;3.60;99.90
4874;DHT22;2451;49.970;9.068;2024-03-02T03:04:41;3.60;99.90
4874;DHT22;2451;49.970;9.068;2024-03-02T03:07:07;3.60;99.90
4874;DHT22;2451;49.970;9.068;2024-03-02T03:09:37;3.60;99.90
4874;DHT22;2451;49.970;9.068;2024-03-02T03:12:04;3.60;99.90
4874;DHT22;2451;49.970;9.068;2024-03-02T03:14:30;3.60;99.90
4874;DHT22;2451;49.970;9.068;2024-03-02T03:16:55;3.60;99.90
4874;DHT22;2451;49.970;9.068;2024-03-02T03:19:21;3.60;99.90
4874;DHT22;2451;49.970;9.068;2024-03-02T03:21:46;3.50;99.90
4874;DHT22;2451;49.970;9.068;2024-03-02T03:24:12;3.50;99.90
4874;DHT22;2451;49.970;9.068;2024-03-02T03:26:37;3.50;99.90
4874;DHT22;2451;49.970;9.068;2024-03-02T03:29:03;3.50;99.90
4874;DHT22;2451;49.970;9.068;2024-03-02T03:31:29;3.50;99.90
4874;DHT22;2451;49.970;9.068;2024-03-02T03:33:55;3.50;99.90
4874;DHT22;2451;49.970;9.068;2024-03-02T03:36:20;3.50;99.90
4874;DHT22;2451;49.970;9.068;2024-03-02T03:38:46;3.50;99.90
4874;DHT22;2451;49.970;9.068;2024-03-02T03:41:12;3.40;99.90
4874;DHT22;2451;49.970;9.068;2024-03-02T03:43:37;3.50;99.90
4874;DHT22;2451;49.970;9.068;2024-03-02T03:46:03;3.50;99.90
4874;DHT22;2451;49.970;9.068;2024-03-02T03:48:29;3.50;99.90
4874;DHT22;2451;49.970;9.068;2024-03-02T03:50:56;3.50;99.90
4874;DHT22;2451;49.970;9.068;2024-03-02T03:53:22;3.50;99.90
4874;DHT22;2451;49.970;9.068;2024-03-02T03:55:50;3.50;99.90
4874;DHT22;2451;49.970;9.068;2024-03-02T03:58:16;3.50;99.90
4874;DHT22;2451;49.970;9.068;2024-03-02T04:00:42;3.50;99.90
4874;DHT22;2451;49.970;9.068;2024-03-02T04:03:08;3.40;99.90
4874;DHT22;2451;49.970;9.068;2024-03-02T04:05:34;3.40;99.90
4874;DHT22;2451;49.970;9.068;2024-03-02T04:07:59;3.40;99.90
4874;DHT22;2451;49.970;9.068;2024-03-02T04:10:26;3.40;99.90
4874;DHT22;2451;49.970;9.068;2024-03-02T04:12:52;3.40;99.90
4874;DHT22;2451;49.970;9.068;2024-03-02T04:15:17;3.40;99.90
4874;DHT22;2451;49.970;9.068;2024-03-02T04:17:44;3.40;99.90
4874;DHT22;2451;49.970;9.068;2024-03-02T04:20:10;3.40;99.90
4874;DHT22;2451;49.970;9.068;2024-03-02T04:22:38;3.40;99.90
4874;DHT22;2451;49.970;9.068;2024-03-02T04:25:04;3.40;99.90
4874;DHT22;2451;49.970;9.068;2024-03-02T04:27:30;3.40;99.90
4874;DHT22;2451;49.970;9.068;2024-03-02T04:29:57;3.40;99.90
4874;DHT22;2451;49.970;9.068;2024-03-02T04:32:22;3.30;99.90
4874;DHT22;2451;49.970;9.068;2024-03-02T04:34:48;3.40;99.90
4874;DHT22;2451;49.970;9.068;2024-03-02T04:37:14;3.40;99.90
4874;DHT22;2451;49.970;9.068;2024-03-02T04:39:39;3.40;99.90
4874;DHT22;2451;49.970;9.068;2024-03-02T04:42:05;3.40;99.90
4874;DHT22;2451;49.970;9.068;2024-03-02T04:44:31;3.50;99.90
4874;DHT22;2451;49.970;9.068;2024-03-02T04:46:56;3.60;99.90
4874;DHT22;2451;49.970;9.068;2024-03-02T04:49:23;3.60;99.90
4874;DHT22;2451;49.970;9.068;2024-03-02T04:51:48;3.70;99.90
4874;DHT22;2451;49.970;9.068;2024-03-02T04:54:14;3.70;99.90
4874;DHT22;2451;49.970;9.068;2024-03-02T04:56:39;3.70;99.90
4874;DHT22;2451;49.970;9.068;2024-03-02T04:59:10;3.70;99.90
4874;DHT22;2451;49.970;9.068;2024-03-02T05:01:36;3.70;99.90
4874;DHT22;2451;49.970;9.068;2024-03-02T05:04:02;3.70;99.90
4874;DHT22;2451;49.970;9.068;2024-03-02T05:06:27;3.70;99.90
4874;DHT22;2451;49.970;9.068;2024-03-02T05:08:53;3.70;99.90
4874;DHT22;2451;49.970;9.068;2024-03-02T05:11:18;3.80;99.90
4874;DHT22;2451;49.970;9.068;2024-03-02T05:14:16;3.80;99.90
4874;DHT22;2451;49.970;9.068;2024-03-02T05:16:42;3.90;99.90
4874;DHT22;2451;49.970;9.068;2024-03-02T05:19:07;3.90;99.90
4874;DHT22;2451;49.970;9.068;2024-03-02T05:21:34;3.90;99.90
4874;DHT22;2451;49.970;9.068;2024-03-02T05:23:59;3.90;99.90
4874;DHT22;2451;49.970;9.068;2024-03-02T05:26:25;3.90;99.90
4874;DHT22;2451;49.970;9.068;2024-03-02T05:28:51;4.00;99.90
4874;DHT22;2451;49.970;9.068;2024-03-02T05:31:16;4.10;99.90
4874;DHT22;2451;49.970;9.068;2024-03-02T05:33:42;4.10;99.90
4874;DHT22;2451;49.970;9.068;2024-03-02T05:36:08;4.20;99.90
4874;DHT22;2451;49.970;9.068;2024-03-02T05:38:37;4.20;99.90
4874;DHT22;2451;49.970;9.068;2024-03-02T05:41:03;4.20;99.90
4874;DHT22;2451;49.970;9.068;2024-03-02T05:43:29;4.30;99.90
4874;DHT22;2451;49.970;9.068;2024-03-02T05:45:54;4.30;99.90
4874;DHT22;2451;49.970;9.068;2024-03-02T05:48:20;4.30;99.90
4874;DHT22;2451;49.970;9.068;2024-03-02T05:50:45;4.40;99.90
4874;DHT22;2451;49.970;9.068;2024-03-02T05:53:11;4.50;99.90
4874;DHT22;2451;49.970;9.068;2024-03-02T05:55:36;4.60;99.90
4874;DHT22;2451;49.970;9.068;2024-03-02T05:58:02;4.70;99.90
4874;DHT22;2451;49.970;9.068;2024-03-02T06:00:48;4.70;99.90
4874;DHT22;2451;49.970;9.068;2024-03-02T06:03:13;4.70;99.90
4874;DHT22;2451;49.970;9.068;2024-03-02T06:05:39;4.70;99.90
4874;DHT22;2451;49.970;9.068;2024-03-02T06:08:06;4.70;99.90
4874;DHT22;2451;49.970;9.068;2024-03-02T06:10:32;4.60;99.90
4874;DHT22;2451;49.970;9.068;2024-03-02T06:12:58;4.60;99.90
4874;DHT22;2451;49.970;9.068;2024-03-02T06:15:24;4.60;99.90
4874;DHT22;2451;49.970;9.068;2024-03-02T06:17:50;4.60;99.90
4874;DHT22;2451;49.970;9.068;2024-03-02T06:20:15;4.60;99.90
4874;DHT22;2451;49.970;9.068;2024-03-02T06:22:41;4.60;99.90
4874;DHT22;2451;49.970;9.068;2024-03-02T06:25:07;4.70;99.90
4874;DHT22;2451;49.970;9.068;2024-03-02T06:27:32;4.70;99.90
4874;DHT22;2451;49.970;9.068;2024-03-02T06:29:58;4.70;99.90
4874;DHT22;2451;49.970;9.068;2024-03-02T06:32:23;4.80;99.90
4874;DHT22;2451;49.970;9.068;2024-03-02T06:34:50;4.80;99.90
4874;DHT22;2451;49.970;9.068;2024-03-02T06:37:16;4.80;99.90
4874;DHT22;2451;49.970;9.068;2024-03-02T06:39:41;4.80;99.90
4874;DHT22;2451;49.970;9.068;2024-03-02T06:42:07;4.80;99.90
4874;DHT22;2451;49.970;9.068;2024-03-02T06:44:32;4.90;99.90
4874;DHT22;2451;49.970;9.068;2024-03-02T06:46:59;4.90;99.90
4874;DHT22;2451;49.970;9.068;2024-03-02T06:49:24;4.90;99.90
4874;DHT22;2451;49.970;9.068;2024-03-02T06:51:50;4.90;99.90
4874;DHT22;2451;49.970;9.068;2024-03-02T06:54:15;4.90;99.90
4874;DHT22;2451;49.970;9.068;2024-03-02T06:56:41;4.90;99.90
4874;DHT22;2451;49.970;9.068;2024-03-02T06:59:06;4.90;99.90
4874;DHT22;2451;49.970;9.068;2024-03-02T07:01:32;4.90;99.90
4874;DHT22;2451;49.970;9.068;2024-03-02T07:03:58;4.90;99.90
4874;DHT22;2451;49.970;9.068;2024-03-02T07:06:23;5.00;99.90
4874;DHT22;2451;49.970;9.068;2024-03-02T07:08:49;5.00;99.90
4874;DHT22;2451;49.970;9.068;2024-03-02T07:11:14;5.00;99.90
4874;DHT22;2451;49.970;9.068;2024-03-02T07:13:40;5.00;99.90
4874;DHT22;2451;49.970;9.068;2024-03-02T07:16:05;5.10;99.90
4874;DHT22;2451;49.970;9.068;2024-03-02T07:18:49;5.10;99.90
4874;DHT22;2451;49.970;9.068;2024-03-02T07:21:17;5.10;99.90
4874;DHT22;2451;49.970;9.068;2024-03-02T07:23:42;5.10;99.90
4874;DHT22;2451;49.970;9.068;2024-03-02T07:26:08;5.20;99.90
4874;DHT22;2451;49.970;9.068;2024-03-02T07:28:34;5.30;99.90
4874;DHT22;2451;49.970;9.068;2024-03-02T07:31:00;5.40;99.90
4874;DHT22;2451;49.970;9.068;2024-03-02T07:33:26;5.50;99.90
4874;DHT22;2451;49.970;9.068;2024-03-02T07:35:52;5.50;99.90
4874;DHT22;2451;49.970;9.068;2024-03-02T07:38:17;5.60;99.90
4874;DHT22;2451;49.970;9.068;2024-03-02T07:40:43;5.70;99.90
4874;DHT22;2451;49.970;9.068;2024-03-02T07:43:09;5.70;99.90
4874;DHT22;2451;49.970;9.068;2024-03-02T07:45:35;5.70;99.90
4874;DHT22;2451;49.970;9.068;2024-03-02T07:48:03;5.80;99.90
4874;DHT22;2451;49.970;9.068;2024-03-02T07:50:29;5.90;99.90
4874;DHT22;2451;49.970;9.068;2024-03-02T07:52:55;6.10;99.90
4874;DHT22;2451;49.970;9.068;2024-03-02T07:55:21;6.30;99.90
4874;DHT22;2451;49.970;9.068;2024-03-02T07:57:49;6.50;99.90
4874;DHT22;2451;49.970;9.068;2024-03-02T08:00:15;6.60;99.90
4874;DHT22;2451;49.970;9.068;2024-03-02T08:02:41;6.70;99.90
4874;DHT22;2451;49.970;9.068;2024-03-02T08:05:08;6.80;99.90
4874;DHT22;2451;49.970;9.068;2024-03-02T08:07:33;6.90;99.90
4874;DHT22;2451;49.970;9.068;2024-03-02T08:09:59;6.90;99.90
4874;DHT22;2451;49.970;9.068;2024-03-02T08:12:25;6.90;99.90
4874;DHT22;2451;49.970;9.068;2024-03-02T08:14:50;6.80;99.90
4874;DHT22;2451;49.970;9.068;2024-03-02T08:17:16;6.80;99.90
4874;DHT22;2451;49.970;9.068;2024-03-02T08:19:42;6.80;99.90
4874;DHT22;2451;49.970;9.068;2024-03-02T08:22:08;6.80;99.90
4874;DHT22;2451;49.970;9.068;2024-03-02T08:24:34;6.80;99.90
4874;DHT22;2451;49.970;9.068;2024-03-02T08:27:00;6.80;99.90
4874;DHT22;2451;49.970;9.068;2024-03-02T08:29:25;6.90;99.90
4874;DHT22;2451;49.970;9.068;2024-03-02T08:31:51;7.00;99.90
4874;DHT22;2451;49.970;9.068;2024-03-02T08:34:16;7.20;99.90
4874;DHT22;2451;49.970;9.068;2024-03-02T08:36:42;7.40;99.90
4874;DHT22;2451;49.970;9.068;2024-03-02T08:39:11;7.80;99.90
4874;DHT22;2451;49.970;9.068;2024-03-02T08:41:42;8.30;99.90
4874;DHT22;2451;49.970;9.068;2024-03-02T08:44:09;8.80;99.90
4874;DHT22;2451;49.970;9.068;2024-03-02T08:46:36;9.10;99.90
4874;DHT22;2451;49.970;9.068;2024-03-02T08:49:02;9.30;99.90
4874;DHT22;2451;49.970;9.068;2024-03-02T08:51:28;9.40;99.90
4874;DHT22;2451;49.970;9.068;2024-03-02T08:53:54;9.40;99.90
4874;DHT22;2451;49.970;9.068;2024-03-02T08:56:19;9.20;99.90
4874;DHT22;2451;49.970;9.068;2024-03-02T08:58:47;9.00;99.90
4874;DHT22;2451;49.970;9.068;2024-03-02T09:01:15;9.10;99.90
4874;DHT22;2451;49.970;9.068;2024-03-02T09:03:42;9.20;99.90
4874;DHT22;2451;49.970;9.068;2024-03-02T09:06:10;9.40;99.90
4874;DHT22;2451;49.970;9.068;2024-03-02T09:08:36;9.60;99.90
4874;DHT22;2451;49.970;9.068;2024-03-02T09:11:05;9.60;99.90
4874;DHT22;2451;49.970;9.068;2024-03-02T09:13:32;9.60;99.90
4874;DHT22;2451;49.970;9.068;2024-03-02T09:15:58;9.50;99.90
4874;DHT22;2451;49.970;9.068;2024-03-02T09:18:24;9.50;99.90
4874;DHT22;2451;49.970;9.068;2024-03-02T09:20:49;9.50;99.90
4874;DHT22;2451;49.970;9.068;2024-03-02T09:23:15;9.60;99.90
4874;DHT22;2451;49.970;9.068;2024-03-02T09:25:40;9.70;99.90
4874;DHT22;2451;49.970;9.068;2024-03-02T09:28:09;9.90;99.90
4874;DHT22;2451;49.970;9.068;2024-03-02T09:30:35;10.10;99.90
4874;DHT22;2451;49.970;9.068;2024-03-02T09:33:00;10.50;99.90
4874;DHT22;2451;49.970;9.068;2024-03-02T09:35:26;10.80;99.90
4874;DHT22;2451;49.970;9.068;2024-03-02T09:37:51;11.00;99.90
4874;DHT22;2451;49.970;9.068;2024-03-02T09:40:17;11.20;99.90
4874;DHT22;2451;49.970;9.068;2024-03-02T09:42:43;11.30;99.90
4874;DHT22;2451;49.970;9.068;2024-03-02T09:45:10;11.30;99.90
4874;DHT22;2451;49.970;9.068;2024-03-02T09:47:36;11.20;99.90
4874;DHT22;2451;49.970;9.068;2024-03-02T09:50:05;11.00;99.90
4874;DHT22;2451;49.970;9.068;2024-03-02T09:52:33;10.90;99.90
4874;DHT22;2451;49.970;9.068;2024-03-02T09:54:59;10.80;99.90
4874;DHT22;2451;49.970;9.068;2024-03-02T09:57:24;10.90;99.90
4874;DHT22;2451;49.970;9.068;2024-03-02T09:59:50;11.10;99.90
4874;DHT22;2451;49.970;9.068;2024-03-02T10:02:18;11.50;99.90
4874;DHT22;2451;49.970;9.068;2024-03-02T10:04:44;12.00;99.90
4874;DHT22;2451;49.970;9.068;2024-03-02T10:07:18;12.40;99.90
4874;DHT22;2451;49.970;9.068;2024-03-02T10:09:45;12.80;99.90
4874;DHT22;2451;49.970;9.068;2024-03-02T10:12:14;13.30;99.90
4874;DHT22;2451;49.970;9.068;2024-03-02T10:14:40;13.60;99.90
4874;DHT22;2451;49.970;9.068;2024-03-02T10:17:08;13.80;99.90
4874;DHT22;2451;49.970;9.068;2024-03-02T10:19:34;14.10;99.90
4874;DHT22;2451;49.970;9.068;2024-03-02T10:22:04;14.30;99.90
4874;DHT22;2451;49.970;9.068;2024-03-02T10:24:42;14.70;99.90
4874;DHT22;2451;49.970;9.068;2024-03-02T10:27:15;14.90;99.90
4874;DHT22;2451;49.970;9.068;2024-03-02T10:29:41;15.40;99.90
4874;DHT22;2451;49.970;9.068;2024-03-02T10:32:13;15.70;99.90
4874;DHT22;2451;49.970;9.068;2024-03-02T10:34:46;16.10;99.90
4874;DHT22;2451;49.970;9.068;2024-03-02T10:37:12;16.00;99.90
4874;DHT22;2451;49.970;9.068;2024-03-02T10:39:39;16.20;99.90
4874;DHT22;2451;49.970;9.068;2024-03-02T10:42:09;16.40;99.90
4874;DHT22;2451;49.970;9.068;2024-03-02T10:44:35;16.40;99.90
4874;DHT22;2451;49.970;9.068;2024-03-02T10:47:05;16.60;99.90
4874;DHT22;2451;49.970;9.068;2024-03-02T10:49:32;17.00;99.90
4874;DHT22;2451;49.970;9.068;2024-03-02T10:52:01;17.00;99.90
4874;DHT22;2451;49.970;9.068;2024-03-02T10:54:27;17.20;99.80
4874;DHT22;2451;49.970;9.068;2024-03-02T10:56:58;17.20;99.90
4874;DHT22;2451;49.970;9.068;2024-03-02T10:59:27;17.20;99.10
4874;DHT22;2451;49.970;9.068;2024-03-02T11:01:57;17.30;98.60
4874;DHT22;2451;49.970;9.068;2024-03-02T11:04:24;17.50;98.40
4874;DHT22;2451;49.970;9.068;2024-03-02T11:06:51;17.60;97.40
4874;DHT22;2451;49.970;9.068;2024-03-02T11:09:20;17.90;97.60
4874;DHT22;2451;49.970;9.068;2024-03-02T11:12:12;18.30;97.30
4874;DHT22;2451;49.970;9.068;2024-03-02T11:14:42;18.40;95.30
4874;DHT22;2451;49.970;9.068;2024-03-02T11:17:14;18.50;95.90
4874;DHT22;2451;49.970;9.068;2024-03-02T11:19:43;18.90;95.70
4874;DHT22;2451;49.970;9.068;2024-03-02T11:22:10;18.90;93.20
4874;DHT22;2451;49.970;9.068;2024-03-02T11:24:36;19.20;92.50
4874;DHT22;2451;49.970;9.068;2024-03-02T11:27:03;19.40;91.50
4874;DHT22;2451;49.970;9.068;2024-03-02T11:32:22;19.30;90.10
4874;DHT22;2451;49.970;9.068;2024-03-02T11:34:51;19.40;89.50
4874;DHT22;2451;49.970;9.068;2024-03-02T11:37:18;19.60;88.70
4874;DHT22;2451;49.970;9.068;2024-03-02T11:39:49;19.30;84.80
4874;DHT22;2451;49.970;9.068;2024-03-02T11:42:15;19.30;84.70
4874;DHT22;2451;49.970;9.068;2024-03-02T11:44:44;19.50;83.60
4874;DHT22;2451;49.970;9.068;2024-03-02T11:47:12;19.60;83.00
4874;DHT22;2451;49.970;9.068;2024-03-02T11:49:44;19.40;79.60
4874;DHT22;2451;49.970;9.068;2024-03-02T11:52:13;19.60;81.60
4874;DHT22;2451;49.970;9.068;2024-03-02T11:54:45;19.20;81.30
4874;DHT22;2451;49.970;9.068;2024-03-02T11:57:21;19.40;82.10
4874;DHT22;2451;49.970;9.068;2024-03-02T11:59:51;19.60;82.00
4874;DHT22;2451;49.970;9.068;2024-03-02T12:02:19;19.70;81.80
4874;DHT22;2451;49.970;9.068;2024-03-02T12:04:48;19.70;81.20
4874;DHT22;2451;49.970;9.068;2024-03-02T12:07:21;19.90;77.40
4874;DHT22;2451;49.970;9.068;2024-03-02T12:10:00;20.10;76.60
4874;DHT22;2451;49.970;9.068;2024-03-02T12:12:26;20.40;77.60
4874;DHT22;2451;49.970;9.068;2024-03-02T12:14:53;20.50;76.50
4874;DHT22;2451;49.970;9.068;2024-03-02T12:17:22;20.30;77.10
4874;DHT22;2451;49.970;9.068;2024-03-02T12:19:48;20.10;75.90
4874;DHT22;2451;49.970;9.068;2024-03-02T12:22:14;20.10;78.50
4874;DHT22;2451;49.970;9.068;2024-03-02T12:24:41;20.30;78.00
4874;DHT22;2451;49.970;9.068;2024-03-02T12:27:11;20.20;77.90
4874;DHT22;2451;49.970;9.068;2024-03-02T12:29:38;20.40;77.40
4874;DHT22;2451;49.970;9.068;2024-03-02T12:32:05;20.50;75.80
4874;DHT22;2451;49.970;9.068;2024-03-02T12:34:31;20.50;77.20
4874;DHT22;2451;49.970;9.068;2024-03-02T12:36:57;20.60;75.40
4874;DHT22;2451;49.970;9.068;2024-03-02T12:39:22;20.60;74.70
4874;DHT22;2451;49.970;9.068;2024-03-02T12:41:49;20.80;75.90
4874;DHT22;2451;49.970;9.068;2024-03-02T12:44:19;20.80;74.90
4874;DHT22;2451;49.970;9.068;2024-03-02T12:46:46;20.90;74.20
4874;DHT22;2451;49.970;9.068;2024-03-02T12:49:13;20.80;73.00
4874;DHT22;2451;49.970;9.068;2024-03-02T12:51:40;20.40;72.70
4874;DHT22;2451;49.970;9.068;2024-03-02T12:54:07;20.60;73.60
4874;DHT22;2451;49.970;9.068;2024-03-02T12:56:33;20.90;74.20
4874;DHT22;2451;49.970;9.068;2024-03-02T12:58:59;20.80;70.70
4874;DHT22;2451;49.970;9.068;2024-03-02T13:01:25;20.70;69.50
4874;DHT22;2451;49.970;9.068;2024-03-02T13:03:52;20.40;69.70
4874;DHT22;2451;49.970;9.068;2024-03-02T13:06:18;20.00;70.60
4874;DHT22;2451;49.970;9.068;2024-03-02T13:08:45;19.80;71.20
4874;DHT22;2451;49.970;9.068;2024-03-02T13:11:11;19.90;73.00
4874;DHT22;2451;49.970;9.068;2024-03-02T13:13:38;20.00;72.20
4874;DHT22;2451;49.970;9.068;2024-03-02T13:16:11;19.70;70.80
4874;DHT22;2451;49.970;9.068;2024-03-02T13:18:41;19.90;71.80
4874;DHT22;2451;49.970;9.068;2024-03-02T13:21:07;19.70;68.20
4874;DHT22;2451;49.970;9.068;2024-03-02T13:23:32;19.50;70.40
4874;DHT22;2451;49.970;9.068;2024-03-02T13:25:58;19.50;70.90
4874;DHT22;2451;49.970;9.068;2024-03-02T13:28:27;19.50;70.70
4874;DHT22;2451;49.970;9.068;2024-03-02T13:30:52;19.30;71.90
4874;DHT22;2451;49.970;9.068;2024-03-02T13:33:18;19.30;73.30
4874;DHT22;2451;49.970;9.068;2024-03-02T13:35:48;19.30;71.10
4874;DHT22;2451;49.970;9.068;2024-03-02T13:38:16;19.30;71.60
4874;DHT22;2451;49.970;9.068;2024-03-02T13:40:41;19.20;71.90
4874;DHT22;2451;49.970;9.068;2024-03-02T13:43:07;19.30;71.80
4874;DHT22;2451;49.970;9.068;2024-03-02T13:45:32;19.30;73.70
4874;DHT22;2451;49.970;9.068;2024-03-02T13:47:58;19.50;74.00
4874;DHT22;2451;49.970;9.068;2024-03-02T13:50:23;19.50;70.80
4874;DHT22;2451;49.970;9.068;2024-03-02T13:52:49;19.50;71.70
4874;DHT22;2451;49.970;9.068;2024-03-02T13:55:14;19.30;71.00
4874;DHT22;2451;49.970;9.068;2024-03-02T13:57:40;18.90;70.40
4874;DHT22;2451;49.970;9.068;2024-03-02T14:00:06;18.80;72.80
4874;DHT22;2451;49.970;9.068;2024-03-02T14:02:36;18.30;70.90
4874;DHT22;2451;49.970;9.068;2024-03-02T14:05:01;18.30;70.80
4874;DHT22;2451;49.970;9.068;2024-03-02T14:07:27;18.50;71.30
4874;DHT22;2451;49.970;9.068;2024-03-02T14:09:52;18.70;71.70
4874;DHT22;2451;49.970;9.068;2024-03-02T14:12:18;18.90;70.10
4874;DHT22;2451;49.970;9.068;2024-03-02T14:14:43;18.70;69.50
4874;DHT22;2451;49.970;9.068;2024-03-02T14:17:09;18.70;71.10
4874;DHT22;2451;49.970;9.068;2024-03-02T14:19:39;18.80;70.40
4874;DHT22;2451;49.970;9.068;2024-03-02T14:22:05;18.80;67.30
4874;DHT22;2451;49.970;9.068;2024-03-02T14:24:30;18.50;67.60
4874;DHT22;2451;49.970;9.068;2024-03-02T14:26:56;18.50;67.50
4874;DHT22;2451;49.970;9.068;2024-03-02T14:29:27;18.70;68.80
4874;DHT22;2451;49.970;9.068;2024-03-02T14:31:52;18.70;69.00
4874;DHT22;2451;49.970;9.068;2024-03-02T14:34:18;18.70;68.20
4874;DHT22;2451;49.970;9.068;2024-03-02T14:36:43;18.40;69.20
4874;DHT22;2451;49.970;9.068;2024-03-02T14:39:10;18.20;69.70
4874;DHT22;2451;49.970;9.068;2024-03-02T14:41:36;18.10;70.90
4874;DHT22;2451;49.970;9.068;2024-03-02T14:44:02;18.00;72.70
4874;DHT22;2451;49.970;9.068;2024-03-02T14:46:28;17.80;72.80
4874;DHT22;2451;49.970;9.068;2024-03-02T14:48:53;17.70;74.20
4874;DHT22;2451;49.970;9.068;2024-03-02T14:51:19;17.50;73.30
4874;DHT22;2451;49.970;9.068;2024-03-02T14:53:44;17.50;75.00
4874;DHT22;2451;49.970;9.068;2024-03-02T14:56:10;17.50;76.10
4874;DHT22;2451;49.970;9.068;2024-03-02T14:58:36;17.50;76.90
4874;DHT22;2451;49.970;9.068;2024-03-02T15:01:03;17.30;77.00
4874;DHT22;2451;49.970;9.068;2024-03-02T15:03:29;17.30;77.90
4874;DHT22;2451;49.970;9.068;2024-03-02T15:05:54;17.30;79.60
4874;DHT22;2451;49.970;9.068;2024-03-02T15:08:20;17.40;80.00
4874;DHT22;2451;49.970;9.068;2024-03-02T15:10:45;17.40;79.50
4874;DHT22;2451;49.970;9.068;2024-03-02T15:13:11;17.20;79.90
4874;DHT22;2451;49.970;9.068;2024-03-02T15:15:37;17.10;81.60
4874;DHT22;2451;49.970;9.068;2024-03-02T15:18:03;16.90;81.60
4874;DHT22;2451;49.970;9.068;2024-03-02T15:20:29;16.80;82.10
4874;DHT22;2451;49.970;9.068;2024-03-02T15:22:54;16.60;83.90
4874;DHT22;2451;49.970;9.068;2024-03-02T15:25:20;16.50;84.40
4874;DHT22;2451;49.970;9.068;2024-03-02T15:27:46;16.30;84.60
4874;DHT22;2451;49.970;9.068;2024-03-02T15:30:11;16.20;85.70
4874;DHT22;2451;49.970;9.068;2024-03-02T15:32:37;16.00;85.70
4874;DHT22;2451;49.970;9.068;2024-03-02T15:35:04;15.90;85.80
4874;DHT22;2451;49.970;9.068;2024-03-02T15:37:30;15.70;86.10
4874;DHT22;2451;49.970;9.068;2024-03-02T15:39:56;15.60;86.40
4874;DHT22;2451;49.970;9.068;2024-03-02T15:42:21;15.60;86.80
4874;DHT22;2451;49.970;9.068;2024-03-02T15:44:49;15.50;86.90
4874;DHT22;2451;49.970;9.068;2024-03-02T15:47:14;15.50;87.30
4874;DHT22;2451;49.970;9.068;2024-03-02T15:49:40;15.50;86.90
4874;DHT22;2451;49.970;9.068;2024-03-02T15:52:06;15.60;87.10
4874;DHT22;2451;49.970;9.068;2024-03-02T15:54:31;15.80;87.10
4874;DHT22;2451;49.970;9.068;2024-03-02T15:56:57;15.80;86.10
4874;DHT22;2451;49.970;9.068;2024-03-02T15:59:22;15.90;86.40
4874;DHT22;2451;49.970;9.068;2024-03-02T16:01:48;16.00;86.30
4874;DHT22;2451;49.970;9.068;2024-03-02T16:04:13;16.10;86.00
4874;DHT22;2451;49.970;9.068;2024-03-02T16:06:39;16.10;86.20
4874;DHT22;2451;49.970;9.068;2024-03-02T16:09:04;16.10;84.50
4874;DHT22;2451;49.970;9.068;2024-03-02T16:11:35;16.10;85.30
4874;DHT22;2451;49.970;9.068;2024-03-02T16:14:01;16.00;86.10
4874;DHT22;2451;49.970;9.068;2024-03-02T16:16:26;15.90;85.30